Time;durP1;ratioP1;P1;durP2;ratioP2;P2;SDS_P1;SDS_P2;PMS_P1;PMS_P2;Temp;Humidity;BMP_temperature;BMP_pressure;BME280_temperature;BME280_humidity;BME280_pressure;Samples;Min_cycle;Max_cycle;Signal;HPM_P1;HPM_P2
2021/05/21 00:00:41;;;;;;;0.00;0.00;;;13.70;67.70;;;;;;5067958;28;20576;-69
2021/05/21 00:03:07;;;;;;;0.00;0.00;;;13.70;67.60;;;;;;5060824;28;20051;-70
2021/05/21 00:05:34;;;;;;;0.00;0.00;;;13.70;67.60;;;;;;5075060;28;20053;-69
2021/05/21 00:08:00;;;;;;;0.00;0.00;;;13.70;67.60;;;;;;5075467;28;20585;-70
2021/05/21 00:10:26;;;;;;;0.00;0.00;;;13.70;67.50;;;;;;5075303;28;20127;-70
2021/05/21 00:12:53;;;;;;;0.00;0.00;;;13.70;67.50;;;;;;5075167;28;20131;-70
2021/05/21 00:15:20;;;;;;;0.00;0.00;;;13.70;67.50;;;;;;5075573;28;20047;-69
2021/05/21 00:17:47;;;;;;;0.00;0.00;;;13.70;67.40;;;;;;5075610;28;20044;-70
2021/05/21 00:20:14;;;;;;;0.00;0.00;;;13.70;67.40;;;;;;5077521;28;20119;-70
2021/05/21 00:22:40;;;;;;;0.00;0.00;;;13.60;67.40;;;;;;5095815;28;20076;-69
2021/05/21 00:25:08;;;;;;;0.00;0.00;;;13.60;67.50;;;;;;5095194;28;20048;-69
2021/05/21 00:27:34;;;;;;;0.00;0.00;;;13.50;67.70;;;;;;5095573;28;20137;-69
2021/05/21 00:30:02;;;;;;;0.00;0.00;;;13.50;67.80;;;;;;5077227;28;20044;-69
2021/05/21 00:32:29;;;;;;;0.00;0.00;;;13.40;67.70;;;;;;5095698;28;20113;-69
2021/05/21 00:34:55;;;;;;;0.00;0.00;;;13.50;67.80;;;;;;5095252;28;20071;-70
2021/05/21 00:37:21;;;;;;;0.00;0.00;;;13.40;67.80;;;;;;5094913;28;20494;-70
2021/05/21 00:39:48;;;;;;;0.00;0.00;;;13.40;68.10;;;;;;5094270;28;20063;-70
2021/05/21 00:42:14;;;;;;;0.00;0.00;;;13.40;68.10;;;;;;5076139;28;20131;-70
2021/05/21 00:44:40;;;;;;;0.00;0.00;;;13.40;68.30;;;;;;5074742;28;20094;-69
2021/05/21 00:47:07;;;;;;;0.00;0.00;;;13.40;68.40;;;;;;5075022;28;20052;-69
2021/05/21 00:49:33;;;;;;;0.00;0.00;;;13.40;68.50;;;;;;5074505;28;20048;-70
2021/05/21 00:52:02;;;;;;;0.00;0.00;;;13.40;68.40;;;;;;5074487;28;20484;-69
2021/05/21 00:54:29;;;;;;;0.00;0.00;;;13.40;68.50;;;;;;5075102;28;20045;-69
2021/05/21 00:56:55;;;;;;;0.00;0.00;;;13.40;68.50;;;;;;5074842;28;20044;-70
2021/05/21 00:59:21;;;;;;;0.00;0.00;;;13.40;68.60;;;;;;5074816;28;20131;-70
2021/05/21 01:01:50;;;;;;;0.00;0.00;;;13.30;68.60;;;;;;5074788;28;20052;-69
2021/05/21 01:04:16;;;;;;;0.00;0.00;;;13.40;68.60;;;;;;5074292;28;20097;-69
2021/05/21 01:06:43;;;;;;;0.00;0.00;;;13.30;68.70;;;;;;5074058;28;20498;-69
2021/05/21 01:09:09;;;;;;;0.00;0.00;;;13.30;68.70;;;;;;5074415;28;20499;-69
2021/05/21 01:11:35;;;;;;;0.00;0.00;;;13.30;68.60;;;;;;5068381;28;20037;-70
2021/05/21 01:14:02;;;;;;;0.00;0.00;;;13.30;68.80;;;;;;5054562;28;20090;-70
2021/05/21 01:16:28;;;;;;;0.00;0.00;;;13.30;68.90;;;;;;5054357;28;20175;-69
2021/05/21 01:18:55;;;;;;;0.00;0.00;;;13.30;68.90;;;;;;5054033;28;20099;-69
2021/05/21 01:21:21;;;;;;;0.00;0.00;;;13.30;68.80;;;;;;5066328;28;20162;-69
2021/05/21 01:23:48;;;;;;;0.00;0.00;;;13.40;68.80;;;;;;5074250;28;20044;-69
2021/05/21 01:26:14;;;;;;;0.00;0.00;;;13.40;68.70;;;;;;5074089;28;20045;-70
2021/05/21 01:28:41;;;;;;;0.00;0.00;;;13.40;68.70;;;;;;5073496;28;20120;-69
2021/05/21 01:31:07;;;;;;;0.00;0.00;;;13.30;68.80;;;;;;5073900;28;20182;-69
2021/05/21 01:33:34;;;;;;;0.00;0.00;;;13.30;69.00;;;;;;5073369;28;20052;-70
2021/05/21 01:36:00;;;;;;;0.00;0.00;;;13.30;69.10;;;;;;5073141;28;20093;-70
2021/05/21 01:38:26;;;;;;;0.00;0.00;;;13.30;69.30;;;;;;5073609;28;20574;-69
2021/05/21 01:40:56;;;;;;;0.05;0.05;;;13.20;69.20;;;;;;5073037;28;20093;-70
2021/05/21 01:43:23;;;;;;;0.00;0.00;;;13.20;69.30;;;;;;5073727;28;20048;-69
2021/05/21 01:45:50;;;;;;;0.00;0.00;;;13.20;69.30;;;;;;5073338;28;20170;-70
2021/05/21 01:48:17;;;;;;;0.00;0.00;;;13.20;69.30;;;;;;5073494;28;20151;-70
2021/05/21 01:50:43;;;;;;;0.00;0.00;;;13.20;69.20;;;;;;5073241;28;20048;-69
2021/05/21 01:53:10;;;;;;;0.00;0.00;;;13.20;69.30;;;;;;5073251;28;20052;-69
2021/05/21 01:55:37;;;;;;;0.00;0.00;;;13.20;69.20;;;;;;5073796;28;20131;-69
2021/05/21 01:58:03;;;;;;;0.00;0.00;;;13.20;69.30;;;;;;5073357;28;20121;-69
2021/05/21 02:00:30;;;;;;;0.00;0.00;;;13.20;69.50;;;;;;5073433;28;20056;-69
2021/05/21 02:02:56;;;;;;;0.00;0.00;;;13.10;69.50;;;;;;5073382;28;20131;-69
2021/05/21 02:05:23;;;;;;;0.00;0.00;;;13.20;69.40;;;;;;5073159;28;20049;-69
2021/05/21 02:07:49;;;;;;;0.00;0.00;;;13.20;69.40;;;;;;5072941;28;20056;-70
2021/05/21 02:10:15;;;;;;;0.00;0.00;;;13.10;69.40;;;;;;5072743;28;20053;-70
2021/05/21 02:12:44;;;;;;;0.00;0.00;;;13.20;69.50;;;;;;5072881;28;20388;-69
2021/05/21 02:15:11;;;;;;;0.00;0.00;;;13.20;69.40;;;;;;5072881;28;20045;-70
2021/05/21 02:17:37;;;;;;;0.00;0.00;;;13.20;69.30;;;;;;5073022;28;20783;-69
2021/05/21 02:20:05;;;;;;;0.00;0.00;;;13.20;69.20;;;;;;5074303;28;20101;-70
2021/05/21 02:22:32;;;;;;;0.00;0.00;;;13.20;69.20;;;;;;5093208;28;20055;-69
2021/05/21 02:25:00;;;;;;;0.00;0.00;;;13.30;69.20;;;;;;5093320;28;20145;-69
2021/05/21 02:27:27;;;;;;;0.00;0.00;;;13.30;69.20;;;;;;5091071;28;20525;-69
2021/05/21 02:29:54;;;;;;;0.00;0.00;;;13.30;69.10;;;;;;5072780;28;20045;-69
2021/05/21 02:32:21;;;;;;;0.00;0.00;;;13.30;69.10;;;;;;5072713;28;20175;-70
2021/05/21 02:34:47;;;;;;;0.05;0.05;;;13.30;69.10;;;;;;5072539;28;20123;-69
2021/05/21 02:37:14;;;;;;;0.00;0.00;;;13.30;69.10;;;;;;5072709;28;20131;-69
2021/05/21 02:39:40;;;;;;;0.00;0.00;;;13.20;69.10;;;;;;5072456;28;20202;-70
2021/05/21 02:42:07;;;;;;;0.00;0.00;;;13.20;69.20;;;;;;5072506;28;20415;-69
2021/05/21 02:44:33;;;;;;;0.00;0.00;;;13.20;69.20;;;;;;5072577;28;20059;-69
2021/05/21 02:47:00;;;;;;;0.00;0.00;;;13.20;69.10;;;;;;5072653;28;20404;-70
2021/05/21 02:49:29;;;;;;;0.00;0.00;;;13.20;69.00;;;;;;5071856;28;20052;-70
2021/05/21 02:51:55;;;;;;;0.00;0.00;;;13.30;69.00;;;;;;5072986;28;20056;-72
2021/05/21 02:54:22;;;;;;;0.00;0.00;;;13.30;69.00;;;;;;5072518;28;20130;-70
2021/05/21 02:56:48;;;;;;;0.00;0.00;;;13.30;69.00;;;;;;5072572;28;20044;-70
2021/05/21 02:59:14;;;;;;;0.00;0.00;;;13.20;69.00;;;;;;5072369;28;20096;-69
2021/05/21 03:01:41;;;;;;;0.00;0.00;;;13.20;69.00;;;;;;5072739;28;20044;-69
2021/05/21 03:04:08;;;;;;;0.00;0.00;;;13.20;68.90;;;;;;5072003;28;20084;-70
2021/05/21 03:06:34;;;;;;;0.00;0.00;;;13.20;69.20;;;;;;5071978;28;20040;-69
2021/05/21 03:09:00;;;;;;;0.00;0.00;;;13.20;69.00;;;;;;5072258;28;20456;-69
2021/05/21 03:11:27;;;;;;;0.00;0.00;;;13.20;69.10;;;;;;5067840;28;20041;-70
2021/05/21 03:13:53;;;;;;;0.00;0.00;;;13.20;69.10;;;;;;5052243;28;20041;-69
2021/05/21 03:16:20;;;;;;;0.00;0.00;;;13.20;69.10;;;;;;5052584;28;20461;-69
2021/05/21 03:18:46;;;;;;;0.00;0.00;;;13.20;69.10;;;;;;5052376;28;20123;-70
2021/05/21 03:21:13;;;;;;;0.00;0.00;;;13.20;69.20;;;;;;5063579;28;20492;-69
2021/05/21 03:23:39;;;;;;;0.00;0.00;;;13.10;69.20;;;;;;5072297;28;20141;-70
2021/05/21 03:26:05;;;;;;;0.00;0.00;;;13.20;69.30;;;;;;5072211;28;20048;-69
2021/05/21 03:28:32;;;;;;;0.00;0.00;;;13.20;69.30;;;;;;5071714;28;20045;-69
2021/05/21 03:30:58;;;;;;;0.00;0.00;;;13.20;69.30;;;;;;5072103;28;20190;-69
2021/05/21 03:33:24;;;;;;;0.00;0.00;;;13.20;69.40;;;;;;5072307;28;20048;-72
2021/05/21 03:35:51;;;;;;;0.00;0.00;;;13.20;69.50;;;;;;5072245;28;20507;-70
2021/05/21 03:38:17;;;;;;;0.00;0.00;;;13.20;69.50;;;;;;5072184;28;20786;-70
2021/05/21 03:40:43;;;;;;;0.00;0.00;;;13.20;69.60;;;;;;5072000;28;20128;-69
2021/05/21 03:43:10;;;;;;;0.00;0.00;;;13.20;69.50;;;;;;5072166;28;20052;-70
2021/05/21 03:45:36;;;;;;;0.00;0.00;;;13.20;69.60;;;;;;5071768;28;20135;-69
2021/05/21 03:48:03;;;;;;;0.00;0.00;;;13.10;69.50;;;;;;5071747;28;20132;-69
2021/05/21 03:50:31;;;;;;;0.00;0.00;;;13.10;69.50;;;;;;5072081;28;20044;-70
2021/05/21 03:52:57;;;;;;;0.00;0.00;;;13.10;69.50;;;;;;5071839;28;20137;-69
2021/05/21 03:55:24;;;;;;;0.00;0.00;;;13.20;69.60;;;;;;5072095;28;20079;-69
2021/05/21 03:57:51;;;;;;;0.00;0.00;;;13.10;69.50;;;;;;5071552;28;20131;-69
2021/05/21 04:00:20;;;;;;;0.00;0.00;;;13.10;69.50;;;;;;5071552;28;20048;-70
2021/05/21 04:02:51;;;;;;;0.08;0.08;;;13.10;69.60;;;;;;5067688;28;20132;-69
2021/05/21 04:05:18;;;;;;;0.00;0.00;;;13.10;69.70;;;;;;5070116;28;20103;-69
2021/05/21 04:07:45;;;;;;;0.00;0.00;;;13.10;69.70;;;;;;5068915;28;20052;-69
2021/05/21 04:10:11;;;;;;;0.00;0.00;;;13.00;69.70;;;;;;5057813;28;20487;-70
2021/05/21 04:12:38;;;;;;;0.00;0.00;;;13.00;69.90;;;;;;5070826;28;20052;-70
2021/05/21 04:15:06;;;;;;;0.00;0.00;;;13.00;69.90;;;;;;5068761;28;20045;-70
2021/05/21 04:17:32;;;;;;;0.00;0.00;;;12.90;69.80;;;;;;5054562;28;20531;-70
2021/05/21 04:19:58;;;;;;;0.00;0.00;;;12.90;69.90;;;;;;5067966;28;20170;-70
2021/05/21 04:22:25;;;;;;;0.00;0.00;;;12.90;69.90;;;;;;5074749;28;20044;-69
2021/05/21 04:24:52;;;;;;;0.00;0.00;;;12.90;70.00;;;;;;5074536;28;20048;-70
2021/05/21 04:27:18;;;;;;;0.00;0.00;;;12.80;69.90;;;;;;5073622;28;20040;-70
2021/05/21 04:29:44;;;;;;;0.00;0.00;;;12.90;69.90;;;;;;5073316;28;20101;-70
2021/05/21 04:32:11;;;;;;;0.00;0.00;;;12.80;69.90;;;;;;5074307;28;20076;-70
2021/05/21 04:34:37;;;;;;;0.00;0.00;;;12.80;69.90;;;;;;5075544;28;20129;-70
2021/05/21 04:37:03;;;;;;;0.00;0.00;;;12.80;69.90;;;;;;5076267;28;20044;-70
2021/05/21 04:39:30;;;;;;;0.00;0.00;;;12.80;69.90;;;;;;5081648;28;20044;-70
2021/05/21 04:41:56;;;;;;;0.00;0.00;;;12.70;69.80;;;;;;5080258;28;20044;-70
2021/05/21 04:44:22;;;;;;;0.00;0.00;;;12.70;69.80;;;;;;5084092;28;20093;-70
2021/05/21 04:46:48;;;;;;;0.00;0.00;;;12.80;69.80;;;;;;5083648;28;20048;-71
2021/05/21 04:49:33;;;;;;;0.03;0.03;;;12.80;69.70;;;;;;5082348;28;20526;-70
2021/05/21 04:52:07;;;;;;;0.00;0.00;;;12.70;69.80;;;;;;5080951;28;20036;-70
2021/05/21 04:54:35;;;;;;;0.00;0.00;;;12.70;69.80;;;;;;5081436;28;20040;-70
2021/05/21 04:57:02;;;;;;;0.00;0.00;;;12.70;69.70;;;;;;5083841;28;20066;-70
2021/05/21 04:59:29;;;;;;;0.00;0.00;;;12.70;69.70;;;;;;5084066;28;20618;-70
2021/05/21 05:01:55;;;;;;;0.00;0.00;;;12.70;69.70;;;;;;5087194;28;20048;-70
2021/05/21 05:04:22;;;;;;;0.00;0.00;;;12.70;69.60;;;;;;5074560;28;20377;-69
2021/05/21 05:06:49;;;;;;;0.00;0.00;;;12.70;69.70;;;;;;5073022;28;20522;-69
2021/05/21 05:09:15;;;;;;;0.00;0.00;;;12.70;69.70;;;;;;5073648;28;20135;-69
2021/05/21 05:11:43;;;;;;;0.00;0.00;;;12.60;69.70;;;;;;5073360;28;20044;-71
2021/05/21 05:14:11;;;;;;;0.00;0.00;;;12.60;69.70;;;;;;5067665;28;20080;-71
2021/05/21 05:16:39;;;;;;;0.00;0.00;;;12.60;69.80;;;;;;5073491;28;20048;-71
2021/05/21 05:19:06;;;;;;;0.00;0.00;;;12.60;69.80;;;;;;5073422;28;20511;-69
2021/05/21 05:21:35;;;;;;;0.00;0.00;;;12.60;69.80;;;;;;5073246;28;20048;-71
2021/05/21 05:24:02;;;;;;;0.00;0.00;;;12.60;69.90;;;;;;5073437;28;20131;-71
2021/05/21 05:26:29;;;;;;;0.00;0.00;;;12.60;69.80;;;;;;5072956;28;20044;-71
2021/05/21 05:28:56;;;;;;;0.00;0.00;;;12.60;69.70;;;;;;5073288;28;20059;-70
2021/05/21 05:31:23;;;;;;;0.00;0.00;;;12.60;69.80;;;;;;5072287;28;20048;-70
2021/05/21 05:33:50;;;;;;;0.00;0.00;;;12.60;69.70;;;;;;5073326;28;20044;-71
2021/05/21 05:36:17;;;;;;;0.00;0.00;;;12.60;69.80;;;;;;5073102;28;20135;-70
2021/05/21 05:38:43;;;;;;;0.00;0.00;;;12.60;69.80;;;;;;5062605;28;20057;-70
2021/05/21 05:41:09;;;;;;;0.00;0.00;;;12.60;69.90;;;;;;5060259;28;20439;-72
2021/05/21 05:43:35;;;;;;;0.00;0.00;;;12.60;69.90;;;;;;5064166;28;20182;-72
2021/05/21 05:46:04;;;;;;;0.10;0.10;;;12.60;69.90;;;;;;5067998;28;20048;-72
2021/05/21 05:48:31;;;;;;;0.00;0.00;;;12.60;70.00;;;;;;5054004;28;20049;-71
2021/05/21 05:50:57;;;;;;;0.00;0.00;;;12.70;70.00;;;;;;5035172;28;20052;-72
2021/05/21 05:53:23;;;;;;;0.00;0.00;;;12.70;69.90;;;;;;5052696;28;20099;-71
2021/05/21 05:55:50;;;;;;;0.00;0.00;;;12.70;69.80;;;;;;5052882;28;20131;-72
2021/05/21 05:58:16;;;;;;;0.00;0.00;;;12.70;69.90;;;;;;5052779;28;20131;-71
2021/05/21 06:00:42;;;;;;;0.00;0.00;;;12.70;70.00;;;;;;5052608;28;20048;-71
2021/05/21 06:03:10;;;;;;;0.00;0.00;;;12.70;70.00;;;;;;5052951;28;20056;-71
2021/05/21 06:05:37;;;;;;;0.00;0.00;;;12.80;69.90;;;;;;5052633;28;20178;-71
2021/05/21 06:08:05;;;;;;;0.00;0.00;;;12.70;69.80;;;;;;5052511;28;20052;-70
2021/05/21 06:10:33;;;;;;;0.03;0.03;;;12.70;69.90;;;;;;5052525;28;20093;-70
2021/05/21 06:13:04;;;;;;;0.10;0.10;;;12.80;69.90;;;;;;5061389;28;20124;-71
2021/05/21 06:15:31;;;;;;;0.03;0.03;;;12.80;69.80;;;;;;5052248;28;20071;-70
2021/05/21 06:17:58;;;;;;;0.00;0.00;;;12.90;69.90;;;;;;5064820;28;20552;-71
2021/05/21 06:20:26;;;;;;;0.00;0.00;;;12.90;69.90;;;;;;5064954;28;20528;-71
2021/05/21 06:22:53;;;;;;;0.00;0.00;;;12.90;69.80;;;;;;5061242;28;20044;-71
2021/05/21 06:25:24;;;;;;;0.00;0.00;;;12.90;69.50;;;;;;5060950;28;20048;-70
2021/05/21 06:27:50;;;;;;;;;;;13.00;69.30;;;;;;5057346;28;20503;-70
2021/05/21 06:30:17;;;;;;;0.00;0.00;;;13.00;69.20;;;;;;5052290;28;19920;-71
2021/05/21 06:32:44;;;;;;;0.00;0.00;;;13.00;69.20;;;;;;5052084;28;20179;-70
2021/05/21 06:35:13;;;;;;;0.00;0.00;;;13.10;69.00;;;;;;5052238;28;20515;-71
2021/05/21 06:37:39;;;;;;;0.00;0.00;;;13.10;68.70;;;;;;5054471;28;20052;-72
2021/05/21 06:40:07;;;;;;;0.00;0.00;;;13.20;68.40;;;;;;5072158;28;20074;-73
2021/05/21 06:42:33;;;;;;;0.00;0.00;;;13.20;68.40;;;;;;5063100;28;20060;-74
2021/05/21 06:45:00;;;;;;;0.00;0.00;;;13.30;68.20;;;;;;5060773;28;20136;-72
2021/05/21 06:47:26;;;;;;;0.00;0.00;;;13.40;67.80;;;;;;5061729;28;20048;-72
2021/05/21 06:49:52;;;;;;;0.00;0.00;;;13.40;67.20;;;;;;5068193;28;20052;-71
2021/05/21 06:52:19;;;;;;;0.10;0.10;;;13.50;67.00;;;;;;5068135;28;20044;-71
2021/05/21 06:54:46;;;;;;;0.00;0.00;;;13.60;66.90;;;;;;5071222;28;20056;-71
2021/05/21 06:57:13;;;;;;;0.00;0.00;;;13.50;65.90;;;;;;5071168;28;20124;-71
2021/05/21 06:59:40;;;;;;;0.00;0.00;;;13.60;66.10;;;;;;5071049;28;20044;-71
2021/05/21 07:02:07;;;;;;;0.00;0.00;;;13.70;66.00;;;;;;5053086;28;20554;-72
2021/05/21 07:04:33;;;;;;;0.00;0.00;;;13.60;65.70;;;;;;5071286;28;20056;-71
2021/05/21 07:07:00;;;;;;;0.00;0.00;;;13.70;65.70;;;;;;5070443;28;20055;-71
2021/05/21 07:09:26;;;;;;;0.00;0.00;;;13.90;65.90;;;;;;5071858;28;20564;-71
2021/05/21 07:11:53;;;;;;;0.00;0.00;;;14.00;64.70;;;;;;5071649;28;20484;-71
2021/05/21 07:14:19;;;;;;;0.00;0.00;;;14.10;64.00;;;;;;5071779;28;20044;-71
2021/05/21 07:16:46;;;;;;;0.00;0.00;;;14.10;63.80;;;;;;5071695;28;20124;-71
2021/05/21 07:19:16;;;;;;;0.00;0.00;;;14.10;63.90;;;;;;5071878;28;20123;-71
2021/05/21 07:21:42;;;;;;;0.00;0.00;;;14.20;64.10;;;;;;5086083;28;20052;-71
2021/05/21 07:24:09;;;;;;;0.00;0.00;;;14.20;64.00;;;;;;5091823;28;20135;-72
2021/05/21 07:26:35;;;;;;;0.00;0.00;;;14.30;64.00;;;;;;5091902;28;20127;-72
2021/05/21 07:29:03;;;;;;;0.00;0.00;;;14.30;63.50;;;;;;5091763;28;20052;-72
2021/05/21 07:31:30;;;;;;;0.00;0.00;;;14.30;63.40;;;;;;5091792;28;20093;-71
2021/05/21 07:33:58;;;;;;;0.00;0.00;;;14.30;63.00;;;;;;5091543;28;20059;-71
2021/05/21 07:36:32;;;;;;;0.00;0.00;;;14.30;63.50;;;;;;5092026;28;20157;-71
2021/05/21 07:38:58;;;;;;;0.10;0.10;;;14.30;63.20;;;;;;5091591;28;20056;-71
2021/05/21 07:41:27;;;;;;;0.00;0.00;;;14.30;63.40;;;;;;5091654;28;20055;-71
2021/05/21 07:43:54;;;;;;;0.00;0.00;;;14.40;63.50;;;;;;5091516;28;20048;-71
2021/05/21 07:46:22;;;;;;;0.00;0.00;;;14.50;63.20;;;;;;5091550;28;20134;-71
2021/05/21 07:48:49;;;;;;;0.00;0.00;;;14.60;63.00;;;;;;5092101;28;20052;-71
2021/05/21 07:51:16;;;;;;;0.00;0.00;;;14.80;62.50;;;;;;5095755;28;20543;-71
2021/05/21 07:53:43;;;;;;;0.00;0.00;;;14.90;62.30;;;;;;5095516;28;20162;-71
2021/05/21 07:56:09;;;;;;;0.00;0.00;;;15.10;60.70;;;;;;5095570;28;20384;-71
2021/05/21 07:58:36;;;;;;;0.00;0.00;;;15.20;60.50;;;;;;5095376;28;20044;-71
2021/05/21 08:01:04;;;;;;;0.00;0.00;;;15.30;60.10;;;;;;5095475;28;20127;-71
2021/05/21 08:03:30;;;;;;;0.00;0.00;;;15.40;59.70;;;;;;5094983;28;20071;-71
2021/05/21 08:05:58;;;;;;;0.00;0.00;;;15.50;59.20;;;;;;5077062;28;20186;-71
2021/05/21 08:08:24;;;;;;;0.00;0.00;;;15.60;59.60;;;;;;5077391;28;20048;-71
2021/05/21 08:10:51;;;;;;;0.00;0.00;;;15.80;59.50;;;;;;5095213;28;20047;-71
2021/05/21 08:13:18;;;;;;;0.00;0.00;;;16.10;58.90;;;;;;5074713;28;20098;-71
2021/05/21 08:15:45;;;;;;;0.00;0.00;;;16.40;57.70;;;;;;5074658;28;20087;-71
2021/05/21 08:18:12;;;;;;;0.00;0.00;;;16.50;52.10;;;;;;5074676;28;20105;-71
2021/05/21 08:20:39;;;;;;;0.00;0.00;;;16.40;51.60;;;;;;5081154;28;20094;-71
2021/05/21 08:23:07;;;;;;;0.00;0.00;;;16.30;52.00;;;;;;5076454;28;20039;-72
2021/05/21 08:25:33;;;;;;;0.00;0.00;;;16.20;50.60;;;;;;5095135;28;20178;-71
2021/05/21 08:27:59;;;;;;;0.00;0.00;;;16.00;51.20;;;;;;5094715;28;20048;-71
2021/05/21 08:30:26;;;;;;;0.00;0.00;;;15.90;51.10;;;;;;5094635;28;20492;-71
2021/05/21 08:32:53;;;;;;;0.00;0.00;;;15.90;51.40;;;;;;5094575;28;20479;-71
2021/05/21 08:35:20;;;;;;;0.00;0.00;;;15.90;51.90;;;;;;5094714;28;20055;-71
2021/05/21 08:37:47;;;;;;;0.00;0.00;;;15.90;52.50;;;;;;5094657;28;20177;-71
2021/05/21 08:40:22;;;;;;;0.00;0.00;;;16.10;52.90;;;;;;5094764;28;20044;-71
2021/05/21 08:42:57;;;;;;;0.00;0.00;;;16.30;52.90;;;;;;5094084;28;20083;-71
2021/05/21 08:45:24;;;;;;;0.00;0.00;;;16.70;52.70;;;;;;5094419;28;20131;-71
2021/05/21 08:47:51;;;;;;;0.00;0.00;;;17.10;51.10;;;;;;5094289;28;20558;-71
2021/05/21 08:50:18;;;;;;;0.00;0.00;;;17.40;49.10;;;;;;5094551;28;20582;-71
2021/05/21 08:52:46;;;;;;;0.00;0.00;;;17.40;48.20;;;;;;5094595;28;20044;-71
2021/05/21 08:55:12;;;;;;;0.00;0.00;;;17.60;47.50;;;;;;5094385;28;20123;-72
2021/05/21 08:57:38;;;;;;;0.00;0.00;;;17.80;47.50;;;;;;5094128;28;20119;-71
2021/05/21 09:00:07;;;;;;;0.00;0.00;;;18.20;47.10;;;;;;5093910;28;20139;-72
2021/05/21 09:02:34;;;;;;;0.00;0.00;;;18.50;45.70;;;;;;5093478;28;20055;-72
2021/05/21 09:05:02;;;;;;;0.00;0.00;;;18.70;45.20;;;;;;5093791;28;20419;-71
2021/05/21 09:07:34;;;;;;;0.00;0.00;;;18.50;44.80;;;;;;5094147;28;20044;-71
2021/05/21 09:10:10;;;;;;;0.00;0.00;;;18.30;44.80;;;;;;5093990;28;20185;-71
2021/05/21 09:12:56;;;;;;;0.00;0.00;;;18.10;45.40;;;;;;5079550;28;20045;-72
2021/05/21 09:15:27;;;;;;;0.00;0.00;;;17.90;47.30;;;;;;5073569;28;20093;-70
2021/05/21 09:18:00;;;;;;;0.00;0.00;;;17.80;46.50;;;;;;5073586;28;20178;-71
2021/05/21 09:20:38;;;;;;;0.00;0.00;;;17.60;46.10;;;;;;5077987;28;20178;-71
2021/05/21 09:23:05;;;;;;;0.00;0.00;;;17.50;47.20;;;;;;5093905;28;20044;-71
2021/05/21 09:25:45;;;;;;;0.00;0.00;;;17.80;47.60;;;;;;5093635;28;20514;-72
2021/05/21 09:28:32;;;;;;;0.00;0.00;;;18.20;46.70;;;;;;5093503;28;20040;-72
2021/05/21 09:31:18;;;;;;;0.00;0.00;;;18.40;45.40;;;;;;5093375;28;20080;-71
2021/05/21 09:33:47;;;;;;;0.00;0.00;;;18.40;44.30;;;;;;5093916;28;20051;-72
2021/05/21 09:36:24;;;;;;;0.00;0.00;;;18.70;45.10;;;;;;5092924;28;20044;-72
2021/05/21 09:38:56;;;;;;;0.00;0.00;;;18.90;43.90;;;;;;5093175;28;20181;-72
2021/05/21 09:41:25;;;;;;;0.00;0.00;;;18.90;44.10;;;;;;5093655;28;20127;-71
2021/05/21 09:43:51;;;;;;;0.00;0.00;;;18.60;44.10;;;;;;5093770;28;20048;-71
2021/05/21 09:46:18;;;;;;;0.00;0.00;;;18.40;44.80;;;;;;5093395;28;20577;-71
2021/05/21 09:48:44;;;;;;;0.00;0.00;;;18.30;45.80;;;;;;5092687;28;20423;-72
2021/05/21 09:51:12;;;;;;;0.00;0.00;;;18.30;45.00;;;;;;5093245;28;20402;-72
2021/05/21 09:53:39;;;;;;;0.00;0.00;;;18.10;45.70;;;;;;5093365;28;20119;-72
2021/05/21 09:56:15;;;;;;;0.00;0.00;;;18.20;46.20;;;;;;5093057;28;20044;-72
2021/05/21 09:58:43;;;;;;;0.00;0.00;;;18.70;45.20;;;;;;5092920;28;20048;-72
2021/05/21 10:01:25;;;;;;;0.00;0.00;;;19.20;44.90;;;;;;5092266;28;20048;-71
2021/05/21 10:03:53;;;;;;;0.00;0.00;;;19.50;43.50;;;;;;5093061;28;20487;-72
2021/05/21 10:06:22;;;;;;;0.00;0.00;;;19.30;43.50;;;;;;5092708;28;20435;-72
2021/05/21 10:08:49;;;;;;;0.00;0.00;;;19.10;44.40;;;;;;5092958;28;20052;-72
2021/05/21 10:11:17;;;;;;;0.00;0.00;;;18.70;45.30;;;;;;5089607;28;20515;-72
2021/05/21 10:13:46;;;;;;;0.00;0.00;;;18.40;45.70;;;;;;5072423;28;20167;-72
2021/05/21 10:16:14;;;;;;;0.00;0.00;;;18.20;46.80;;;;;;5072307;28;20412;-72
2021/05/21 10:18:54;;;;;;;0.00;0.00;;;18.50;48.10;;;;;;5072323;28;20131;-71
2021/05/21 10:21:22;;;;;;;0.00;0.00;;;18.70;45.20;;;;;;5084502;28;20077;-71
2021/05/21 10:23:55;;;;;;;0.00;0.00;;;18.60;42.90;;;;;;5092787;28;20055;-71
2021/05/21 10:26:34;;;;;;;0.00;0.00;;;18.50;43.30;;;;;;5092894;28;20096;-71
2021/05/21 10:29:05;;;;;;;0.00;0.00;;;18.20;42.40;;;;;;5092257;28;20456;-71
2021/05/21 10:31:32;;;;;;;0.00;0.00;;;18.00;42.80;;;;;;5091851;28;20039;-71
2021/05/21 10:34:14;;;;;;;0.00;0.00;;;17.90;43.40;;;;;;5092289;28;20479;-71
2021/05/21 10:36:40;;;;;;;0.00;0.00;;;17.80;43.10;;;;;;5092585;28;20123;-71
2021/05/21 10:39:22;;;;;;;0.00;0.00;;;17.70;43.10;;;;;;5092019;28;20079;-71
2021/05/21 10:41:53;;;;;;;0.00;0.00;;;17.60;43.00;;;;;;5074701;28;20055;-71
2021/05/21 10:44:38;;;;;;;0.00;0.00;;;17.60;44.20;;;;;;5092175;28;20510;-71
2021/05/21 10:47:35;;;;;;;0.00;0.00;;;17.60;45.10;;;;;;5092150;28;20528;-72
2021/05/21 10:50:01;;;;;;;0.00;0.00;;;17.70;44.70;;;;;;5090554;28;20051;-72
2021/05/21 10:52:51;;;;;;;0.00;0.00;;;17.60;43.90;;;;;;5092350;28;20048;-72
2021/05/21 10:55:18;;;;;;;0.00;0.00;;;17.60;44.80;;;;;;5092153;28;20051;-72
2021/05/21 10:58:01;;;;;;;0.00;0.00;;;17.60;45.20;;;;;;5091163;28;20127;-72
2021/05/21 11:00:27;;;;;;;0.00;0.00;;;17.60;44.70;;;;;;5092200;28;20044;-72
2021/05/21 11:02:55;;;;;;;0.00;0.00;;;17.70;44.70;;;;;;5092353;28;20173;-71
2021/05/21 11:05:34;;;;;;;0.00;0.00;;;17.70;44.30;;;;;;5091980;28;20052;-72
2021/05/21 11:08:06;;;;;;;0.00;0.00;;;17.60;44.20;;;;;;5092307;28;20055;-71
2021/05/21 11:10:33;;;;;;;0.00;0.00;;;17.60;44.60;;;;;;5092072;28;20115;-72
2021/05/21 11:13:01;;;;;;;0.00;0.00;;;17.60;45.90;;;;;;5074319;28;20090;-71
2021/05/21 11:15:43;;;;;;;0.00;0.00;;;17.60;45.20;;;;;;5071767;28;20119;-72
2021/05/21 11:18:15;;;;;;;0.00;0.00;;;17.60;45.60;;;;;;5071910;28;20087;-72
2021/05/21 11:21:10;;;;;;;0.00;0.00;;;17.60;45.20;;;;;;5071677;28;20047;-72
2021/05/21 11:24:03;;;;;;;0.00;0.00;;;17.60;44.80;;;;;;5071920;28;20128;-72
2021/05/21 11:26:30;;;;;;;0.00;0.00;;;17.60;45.00;;;;;;5075654;28;20045;-72
2021/05/21 11:28:58;;;;;;;0.00;0.00;;;17.60;45.30;;;;;;5075745;28;20124;-72
2021/05/21 11:31:33;;;;;;;0.00;0.00;;;17.60;46.20;;;;;;5074915;28;20445;-72
2021/05/21 11:34:02;;;;;;;0.00;0.00;;;17.50;46.70;;;;;;5075605;28;20526;-72
2021/05/21 11:36:31;;;;;;;0.00;0.00;;;17.50;47.10;;;;;;5075845;28;20401;-72
2021/05/21 11:38:58;;;;;;;0.00;0.00;;;17.50;46.50;;;;;;5075421;28;20117;-72
2021/05/21 11:41:33;;;;;;;0.00;0.00;;;17.40;46.70;;;;;;5075190;28;20110;-71
2021/05/21 11:44:10;;;;;;;0.00;0.00;;;17.40;47.50;;;;;;5075684;28;20126;-72
2021/05/21 11:46:38;;;;;;;0.00;0.00;;;17.40;47.30;;;;;;5075380;28;20131;-72
2021/05/21 11:49:09;;;;;;;0.00;0.00;;;17.20;47.50;;;;;;5075407;28;20146;-72
2021/05/21 11:51:36;;;;;;;0.00;0.00;;;17.20;48.20;;;;;;5075250;28;20137;-72
2021/05/21 11:54:06;;;;;;;0.00;0.00;;;17.20;49.00;;;;;;5075574;28;20044;-72
2021/05/21 11:56:41;;;;;;;0.00;0.00;;;17.20;49.40;;;;;;5075264;28;20634;-72
2021/05/21 11:59:12;;;;;;;0.00;0.00;;;17.20;49.60;;;;;;5075294;28;20128;-71
2021/05/21 12:01:50;;;;;;;0.00;0.00;;;17.30;49.90;;;;;;5075282;28;20056;-72
2021/05/21 12:04:18;;;;;;;0.00;0.00;;;17.30;49.30;;;;;;5074930;28;20052;-72
2021/05/21 12:06:55;;;;;;;0.00;0.00;;;17.30;48.20;;;;;;5074608;28;20099;-72
2021/05/21 12:09:22;;;;;;;0.00;0.00;;;17.40;47.90;;;;;;5074557;28;20178;-72
2021/05/21 12:11:50;;;;;;;0.00;0.00;;;17.40;47.60;;;;;;5074614;28;20048;-72
2021/05/21 12:14:20;;;;;;;0.00;0.00;;;17.40;47.70;;;;;;5074548;28;20045;-72
2021/05/21 12:16:48;;;;;;;0.00;0.00;;;17.30;49.00;;;;;;5075020;28;20126;-73
2021/05/21 12:19:15;;;;;;;0.00;0.00;;;17.20;49.60;;;;;;5074462;28;20072;-72
2021/05/21 12:21:46;;;;;;;0.00;0.00;;;17.20;48.70;;;;;;5089693;28;20122;-71
2021/05/21 12:24:16;;;;;;;0.00;0.00;;;17.00;49.70;;;;;;5094443;28;20530;-71
2021/05/21 12:26:44;;;;;;;0.00;0.00;;;16.90;51.10;;;;;;5095024;28;20048;-71
2021/05/21 12:29:12;;;;;;;0.00;0.00;;;16.70;51.80;;;;;;5095056;28;20488;-71
2021/05/21 12:31:44;;;;;;;0.00;0.00;;;16.60;52.80;;;;;;5094638;28;20127;-72
2021/05/21 12:34:10;;;;;;;0.00;0.00;;;16.60;53.50;;;;;;5094866;28;20407;-72
2021/05/21 12:36:37;;;;;;;0.00;0.00;;;16.70;53.30;;;;;;5093449;28;20122;-72
2021/05/21 12:39:09;;;;;;;0.00;0.00;;;16.70;53.50;;;;;;5094258;28;20056;-72
2021/05/21 12:41:38;;;;;;;0.00;0.00;;;16.80;52.80;;;;;;5093882;28;20059;-72
2021/05/21 12:44:13;;;;;;;0.00;0.00;;;16.80;52.30;;;;;;5094413;28;20044;-72
2021/05/21 12:46:46;;;;;;;0.00;0.00;;;16.80;52.10;;;;;;5094386;28;20083;-71
2021/05/21 12:49:14;;;;;;;0.00;0.00;;;16.90;51.50;;;;;;5094437;28;20048;-72
2021/05/21 12:51:40;;;;;;;0.00;0.00;;;16.80;50.40;;;;;;5093969;28;20096;-71
2021/05/21 12:54:23;;;;;;;0.00;0.00;;;16.80;51.10;;;;;;5094126;28;20506;-71